createdAt,value
2023-01-13T00:00:27.741Z,10.49
2023-01-13T00:02:55.362Z,10.50
2023-01-13T00:05:23.028Z,10.50
2023-01-13T00:07:50.649Z,10.53
2023-01-13T00:10:19.767Z,10.48
2023-01-13T00:12:47.429Z,10.50
2023-01-13T00:15:15.024Z,10.61
2023-01-13T00:17:42.637Z,10.59
2023-01-13T00:20:11.688Z,10.52
2023-01-13T00:22:39.320Z,10.48
2023-01-13T00:25:07.593Z,10.42
2023-01-13T00:27:36.606Z,10.61
2023-01-13T00:30:05.489Z,10.63
2023-01-13T00:32:33.467Z,10.42
2023-01-13T00:35:01.479Z,10.49
2023-01-13T00:37:29.197Z,10.47
2023-01-13T00:39:57.701Z,10.51
2023-01-13T00:42:42.952Z,10.45
2023-01-13T00:45:12.333Z,10.42
2023-01-13T00:47:39.971Z,10.34
2023-01-13T00:50:08.155Z,10.35
2023-01-13T00:52:35.787Z,10.31
2023-01-13T00:55:03.916Z,10.29
2023-01-13T00:57:31.544Z,10.37
2023-01-13T00:59:59.251Z,10.21
2023-01-13T01:02:28.220Z,10.23
2023-01-13T01:04:55.830Z,10.30
2023-01-13T01:07:23.470Z,10.29
2023-01-13T01:09:51.097Z,10.20
2023-01-13T01:12:18.746Z,10.19
2023-01-13T01:14:46.604Z,10.30
2023-01-13T01:17:14.356Z,10.31
2023-01-13T01:19:43.372Z,10.23
2023-01-13T01:22:11.167Z,10.28
2023-01-13T01:24:38.741Z,10.37
2023-01-13T01:27:06.358Z,10.29
2023-01-13T01:29:33.959Z,10.19
2023-01-13T01:32:01.576Z,10.41
2023-01-13T01:34:29.870Z,10.32
2023-01-13T01:36:58.777Z,10.36
2023-01-13T01:39:26.672Z,10.27
2023-01-13T01:42:20.624Z,10.39
2023-01-13T01:45:02.680Z,10.37
2023-01-13T01:47:33.280Z,10.36
2023-01-13T01:50:03.712Z,10.25
2023-01-13T01:52:37.841Z,10.30
2023-01-13T01:55:09.702Z,10.23
2023-01-13T01:57:41.657Z,10.40
2023-01-13T02:00:10.992Z,10.43
2023-01-13T02:02:44.465Z,10.23
2023-01-13T02:05:12.426Z,10.18
2023-01-13T02:07:44.298Z,10.36
2023-01-13T02:10:14.729Z,10.32
2023-01-13T02:12:44.700Z,10.24
2023-01-13T02:15:14.973Z,10.25
2023-01-13T02:18:10.239Z,10.08
2023-01-13T02:21:00.568Z,10.27
2023-01-13T02:24:21.813Z,10.13
2023-01-13T02:27:13.944Z,10.06
2023-01-13T02:30:15.409Z,10.20
2023-01-13T02:32:53.477Z,10.18
2023-01-13T02:35:27.181Z,10.10
2023-01-13T02:37:57.688Z,10.01
2023-01-13T02:40:28.240Z,10.08
2023-01-13T02:43:20.469Z,10.07
2023-01-13T02:45:53.678Z,9.54
2023-01-13T02:48:24.584Z,9.96
2023-01-13T02:51:02.243Z,9.77
2023-01-13T02:53:34.974Z,9.87
2023-01-13T02:56:05.871Z,9.88
2023-01-13T02:58:36.700Z,9.65
2023-01-13T03:01:06.206Z,9.96
2023-01-13T03:03:33.932Z,9.88
2023-01-13T03:06:14.050Z,9.75
2023-01-13T03:08:47.663Z,9.85
2023-01-13T03:11:17.084Z,9.72
2023-01-13T03:14:09.188Z,9.83
2023-01-13T03:16:57.503Z,9.90
2023-01-13T03:19:35.340Z,9.89
2023-01-13T03:22:20.546Z,9.85
2023-01-13T03:24:53.996Z,9.85
2023-01-13T03:27:27.534Z,9.93
2023-01-13T03:30:00.081Z,10.00
2023-01-13T03:32:33.407Z,9.92
2023-01-13T03:35:06.076Z,9.80
2023-01-13T03:37:38.702Z,9.81
2023-01-13T03:40:11.870Z,10.01
2023-01-13T03:43:02.763Z,9.90
2023-01-13T03:45:32.008Z,9.69
2023-01-13T03:48:02.671Z,9.86
2023-01-13T03:50:36.783Z,9.76
2023-01-13T03:53:08.298Z,9.86
2023-01-13T03:55:39.173Z,9.84
2023-01-13T03:58:14.327Z,9.73
2023-01-13T04:00:48.645Z,9.82
2023-01-13T04:03:25.092Z,9.67
2023-01-13T04:05:58.857Z,9.69
2023-01-13T04:08:29.490Z,9.62
2023-01-13T04:11:03.032Z,9.57
2023-01-13T04:13:36.602Z,9.56
2023-01-13T04:16:06.974Z,9.66
2023-01-13T04:18:38.492Z,9.74
2023-01-13T04:21:07.529Z,9.75
2023-01-13T04:23:35.320Z,9.49
2023-01-13T04:26:03.024Z,9.71
2023-01-13T04:28:30.735Z,9.76
2023-01-13T04:30:58.389Z,9.60
2023-01-13T04:33:26.063Z,9.90
2023-01-13T04:35:55.237Z,9.87
2023-01-13T04:38:23.099Z,9.97
2023-01-13T04:40:50.773Z,10.09
2023-01-13T04:43:18.416Z,9.95
2023-01-13T04:45:46.044Z,10.06
2023-01-13T04:48:14.155Z,10.03
2023-01-13T04:50:42.749Z,10.09
2023-01-13T04:53:11.852Z,10.06
2023-01-13T04:55:39.569Z,10.17
2023-01-13T04:58:09.016Z,10.17
2023-01-13T05:00:37.301Z,10.12
2023-01-13T05:03:05.132Z,10.05
2023-01-13T05:05:33.349Z,10.22
2023-01-13T05:08:01.236Z,10.15
2023-01-13T05:10:30.179Z,10.15
2023-01-13T05:13:15.580Z,10.13
2023-01-13T05:16:01.500Z,10.23
2023-01-13T05:18:31.598Z,10.35
2023-01-13T05:20:59.285Z,10.31
2023-01-13T05:23:44.687Z,10.37
2023-01-13T05:26:13.684Z,10.29
2023-01-13T05:28:41.378Z,10.36
2023-01-13T05:31:09.111Z,10.38
2023-01-13T05:33:36.831Z,10.42
2023-01-13T05:36:05.785Z,10.45
2023-01-13T05:38:33.459Z,10.36
2023-01-13T05:41:18.684Z,10.32
2023-01-13T05:43:47.915Z,10.38
2023-01-13T05:46:17.630Z,10.43
2023-01-13T05:48:46.035Z,10.46
2023-01-13T05:51:14.536Z,10.29
2023-01-13T05:53:42.351Z,10.50
2023-01-13T05:56:11.283Z,10.41
2023-01-13T05:58:39.163Z,10.35
2023-01-13T06:01:10.087Z,10.40
2023-01-13T06:03:38.659Z,10.33
2023-01-13T06:06:08.800Z,10.57
2023-01-13T06:08:39.455Z,10.58
2023-01-13T06:11:07.424Z,10.32
2023-01-13T06:13:35.093Z,10.42
2023-01-13T06:16:02.872Z,10.32
2023-01-13T06:18:32.037Z,10.05
2023-01-13T06:20:59.853Z,9.92
2023-01-13T06:23:28.033Z,9.77
2023-01-13T06:26:04.996Z,9.52
2023-01-13T06:28:33.244Z,9.60
2023-01-13T06:31:04.182Z,9.35
2023-01-13T06:33:37.980Z,9.18
2023-01-13T06:36:11.086Z,9.29
2023-01-13T06:38:42.198Z,9.19
2023-01-13T06:41:10.065Z,9.31
2023-01-13T06:43:38.396Z,9.24
2023-01-13T06:46:06.441Z,9.26
2023-01-13T06:48:35.937Z,9.16
2023-01-13T06:51:04.271Z,9.07
2023-01-13T06:53:32.039Z,9.01
2023-01-13T06:56:00.051Z,8.92
2023-01-13T06:58:27.974Z,8.86
2023-01-13T07:00:55.708Z,8.81
2023-01-13T07:03:23.390Z,8.90
2023-01-13T07:05:57.428Z,9.00
2023-01-13T07:08:25.980Z,9.09
2023-01-13T07:10:54.144Z,8.97
2023-01-13T07:13:40.111Z,9.03
2023-01-13T07:16:09.663Z,9.01
2023-01-13T07:18:37.891Z,9.04
2023-01-13T07:21:09.100Z,8.68
2023-01-13T07:23:38.236Z,8.75
2023-01-13T07:26:07.201Z,8.89
2023-01-13T07:28:35.082Z,8.98
2023-01-13T07:31:02.727Z,8.93
2023-01-13T07:33:32.885Z,8.93
2023-01-13T07:36:03.029Z,8.98
2023-01-13T07:38:33.627Z,8.75
2023-01-13T07:41:22.749Z,8.82
2023-01-13T07:43:50.288Z,8.73
2023-01-13T07:46:18.270Z,8.78
2023-01-13T07:48:47.848Z,8.85
2023-01-13T07:51:15.690Z,8.88
2023-01-13T07:53:45.082Z,8.90
2023-01-13T07:56:12.756Z,8.90
2023-01-13T07:58:40.540Z,8.89
2023-01-13T08:01:09.701Z,8.80
2023-01-13T08:03:37.479Z,8.82
2023-01-13T08:06:06.050Z,8.84
2023-01-13T08:08:34.023Z,8.75
2023-01-13T08:11:04.827Z,8.75
2023-01-13T08:13:32.792Z,8.64
2023-01-13T08:16:02.571Z,8.59
2023-01-13T08:18:32.017Z,8.71
2023-01-13T08:21:03.280Z,8.64
2023-01-13T08:23:31.245Z,8.56
2023-01-13T08:26:01.307Z,8.62
2023-01-13T08:28:31.082Z,8.65
2023-01-13T08:31:00.614Z,8.70
2023-01-13T08:33:28.803Z,8.74
2023-01-13T08:35:56.644Z,8.79
2023-01-13T08:38:24.985Z,8.79
2023-01-13T08:40:52.908Z,8.62
2023-01-13T08:43:20.587Z,8.74
2023-01-13T08:45:58.209Z,8.63
2023-01-13T08:48:26.353Z,8.65
2023-01-13T08:50:54.617Z,8.62
2023-01-13T08:53:22.268Z,8.63
2023-01-13T08:55:49.933Z,8.65
2023-01-13T08:58:17.604Z,8.71
2023-01-13T09:00:45.784Z,8.77
2023-01-13T09:03:14.759Z,8.75
2023-01-13T09:05:42.468Z,8.83
2023-01-13T09:08:10.203Z,8.75
2023-01-13T09:10:40.276Z,8.74
2023-01-13T09:13:13.047Z,8.76
2023-01-13T09:15:42.559Z,8.91
2023-01-13T09:18:10.609Z,8.81
2023-01-13T09:20:40.033Z,8.98
2023-01-13T09:23:10.743Z,9.09
2023-01-13T09:25:39.122Z,9.10
2023-01-13T09:28:08.640Z,9.28
2023-01-13T09:30:38.184Z,9.24
2023-01-13T09:33:23.518Z,9.15
2023-01-13T09:35:52.554Z,9.12
2023-01-13T09:38:20.448Z,9.13
2023-01-13T09:40:49.971Z,9.05
2023-01-13T09:43:39.176Z,9.21
2023-01-13T09:46:33.988Z,9.36
2023-01-13T09:49:03.645Z,9.43
2023-01-13T09:51:37.677Z,9.52
2023-01-13T09:54:13.501Z,9.72
2023-01-13T09:56:42.170Z,9.72
2023-01-13T09:59:12.121Z,9.82
2023-01-13T10:01:46.301Z,9.55
2023-01-13T10:04:16.185Z,9.53
2023-01-13T10:06:51.106Z,9.63
2023-01-13T10:09:26.776Z,9.65
2023-01-13T10:12:16.403Z,9.70
2023-01-13T10:14:56.265Z,9.90
2023-01-13T10:17:31.529Z,9.82
2023-01-13T10:20:10.116Z,9.69
2023-01-13T10:22:50.287Z,9.63
2023-01-13T10:25:36.941Z,9.84
2023-01-13T10:28:11.133Z,9.75
2023-01-13T10:30:41.359Z,9.67
2023-01-13T10:33:13.402Z,9.80
2023-01-13T10:35:56.565Z,9.69
2023-01-13T10:38:28.937Z,9.75
2023-01-13T10:40:58.941Z,9.62
2023-01-13T10:43:27.889Z,9.87
2023-01-13T10:46:01.603Z,9.76
2023-01-13T10:48:38.600Z,9.82
2023-01-13T10:51:20.677Z,9.88
2023-01-13T10:53:57.269Z,9.62
2023-01-13T10:56:28.641Z,9.74
2023-01-13T10:59:18.464Z,9.77
2023-01-13T11:01:59.664Z,9.66
2023-01-13T11:04:31.321Z,9.59
2023-01-13T11:06:59.673Z,9.48
2023-01-13T11:09:30.945Z,9.46
2023-01-13T11:12:00.176Z,9.49
2023-01-13T11:14:39.245Z,9.29
2023-01-13T11:17:33.428Z,9.23
2023-01-13T11:20:08.017Z,9.30
2023-01-13T11:22:40.922Z,9.52
2023-01-13T11:25:17.258Z,9.80
2023-01-13T11:27:48.976Z,10.01
2023-01-13T11:30:32.292Z,10.06
2023-01-13T11:33:25.836Z,10.02
2023-01-13T11:36:04.277Z,9.97
2023-01-13T11:38:38.853Z,10.18
2023-01-13T11:41:13.782Z,10.07
2023-01-13T11:43:47.362Z,10.24
2023-01-13T11:46:15.055Z,10.25
2023-01-13T11:48:44.001Z,10.33
2023-01-13T11:51:27.101Z,10.41
2023-01-13T11:54:24.324Z,10.29
2023-01-13T11:57:25.476Z,10.52
2023-01-13T12:00:12.991Z,10.43
2023-01-13T12:02:57.949Z,10.63
2023-01-13T12:05:35.251Z,10.31
2023-01-13T12:08:18.752Z,10.29
2023-01-13T12:11:00.129Z,10.10
2023-01-13T12:13:41.297Z,10.16
2023-01-13T12:16:16.827Z,10.30
2023-01-13T12:19:07.655Z,10.48
2023-01-13T12:21:40.002Z,10.42
2023-01-13T12:24:18.972Z,10.67
2023-01-13T12:26:52.700Z,10.96
2023-01-13T12:29:28.902Z,11.05
2023-01-13T12:31:56.973Z,10.91
2023-01-13T12:34:34.735Z,10.66
2023-01-13T12:37:12.964Z,10.18
2023-01-13T12:39:49.415Z,10.27
2023-01-13T12:42:41.324Z,10.36
2023-01-13T12:45:23.488Z,10.50
2023-01-13T12:47:52.742Z,10.53
2023-01-13T12:50:41.614Z,9.98
2023-01-13T12:53:36.204Z,10.89
2023-01-13T12:56:44.527Z,11.09
2023-01-13T12:59:36.991Z,11.14
2023-01-13T13:02:38.960Z,11.22
2023-01-13T13:05:40.392Z,11.55
2023-01-13T13:08:15.856Z,11.54
2023-01-13T13:10:48.647Z,11.40
2023-01-13T13:13:39.249Z,11.42
2023-01-13T13:16:49.688Z,11.36
2023-01-13T13:19:57.441Z,10.77
2023-01-13T13:22:51.119Z,11.16
2023-01-13T13:25:28.003Z,11.23
2023-01-13T13:28:09.028Z,11.23
2023-01-13T13:30:38.504Z,11.29
2023-01-13T13:33:22.164Z,11.36
2023-01-13T13:36:08.300Z,11.29
2023-01-13T13:39:12.444Z,11.09
2023-01-13T13:42:03.272Z,10.80
2023-01-13T13:44:58.142Z,10.64
2023-01-13T13:47:25.859Z,10.52
2023-01-13T13:49:54.882Z,10.78
2023-01-13T13:52:26.496Z,10.82
2023-01-13T13:54:59.103Z,10.41
2023-01-13T13:57:34.228Z,10.00
2023-01-13T14:00:07.338Z,10.02
2023-01-13T14:02:39.853Z,10.10
2023-01-13T14:05:09.872Z,10.17
2023-01-13T14:07:44.810Z,9.83
2023-01-13T14:10:21.027Z,9.96
2023-01-13T14:12:48.795Z,9.67
2023-01-13T14:15:34.987Z,9.39
2023-01-13T14:18:05.292Z,9.21
2023-01-13T14:20:34.504Z,8.97
2023-01-13T14:23:05.169Z,9.00
2023-01-13T14:25:38.280Z,8.82
2023-01-13T14:28:19.568Z,8.72
2023-01-13T14:30:47.970Z,8.85
2023-01-13T14:33:18.403Z,9.15
2023-01-13T14:36:05.891Z,9.51
2023-01-13T14:38:33.670Z,9.65
2023-01-13T14:41:16.748Z,9.86
2023-01-13T14:43:45.585Z,9.92
2023-01-13T14:46:14.363Z,10.22
2023-01-13T14:48:47.027Z,10.22
2023-01-13T14:51:22.733Z,10.08
2023-01-13T14:53:50.996Z,10.11
2023-01-13T14:56:55.032Z,10.09
2023-01-13T14:59:36.938Z,9.80
2023-01-13T15:02:37.137Z,9.94
2023-01-13T15:05:47.499Z,9.90
2023-01-13T15:08:37.568Z,9.72
2023-01-13T15:11:08.350Z,9.80
2023-01-13T15:13:49.059Z,9.59
2023-01-13T15:16:23.763Z,9.42
2023-01-13T15:18:51.700Z,9.50
2023-01-13T15:21:20.632Z,9.35
2023-01-13T15:23:48.369Z,9.33
2023-01-13T15:26:27.307Z,9.35
2023-01-13T15:28:58.988Z,9.18
2023-01-13T15:31:28.253Z,9.00
2023-01-13T15:33:55.980Z,9.01
2023-01-13T15:36:26.865Z,9.08
2023-01-13T15:38:54.738Z,9.16
2023-01-13T15:41:42.814Z,8.96
2023-01-13T15:44:31.910Z,9.02
2023-01-13T15:47:02.602Z,8.96
2023-01-13T15:49:35.046Z,8.92
2023-01-13T15:52:04.101Z,8.73
2023-01-13T15:54:32.309Z,9.02
2023-01-13T15:57:00.011Z,8.99
2023-01-13T15:59:29.195Z,9.01
2023-01-13T16:01:56.890Z,9.09
2023-01-13T16:04:24.575Z,9.03
2023-01-13T16:06:52.217Z,9.08
2023-01-13T16:09:19.850Z,9.19
2023-01-13T16:11:47.565Z,9.20
2023-01-13T16:14:15.217Z,9.24
2023-01-13T16:16:44.245Z,9.13
2023-01-13T16:19:13.037Z,9.07
2023-01-13T16:21:41.105Z,9.13
2023-01-13T16:24:08.836Z,8.88
2023-01-13T16:26:38.759Z,8.89
2023-01-13T16:29:07.162Z,8.88
2023-01-13T16:31:35.541Z,8.93
2023-01-13T16:34:05.562Z,9.03
2023-01-13T16:36:36.357Z,9.00
2023-01-13T16:39:04.843Z,8.96
2023-01-13T16:41:34.337Z,8.93
2023-01-13T16:44:05.870Z,8.99
2023-01-13T16:46:34.073Z,8.92
2023-01-13T16:49:05.827Z,8.94
2023-01-13T16:51:34.252Z,9.14
2023-01-13T16:54:01.916Z,9.10
2023-01-13T16:56:31.310Z,9.11
2023-01-13T16:59:01.312Z,9.16
2023-01-13T17:01:31.293Z,9.20
2023-01-13T17:04:00.018Z,9.14
2023-01-13T17:06:34.161Z,9.18
2023-01-13T17:09:03.039Z,9.25
2023-01-13T17:11:31.323Z,9.20
2023-01-13T17:13:59.000Z,9.19
2023-01-13T17:16:28.097Z,9.22
2023-01-13T17:18:56.073Z,9.26
2023-01-13T17:21:24.235Z,9.10
2023-01-13T17:23:53.255Z,9.17
2023-01-13T17:26:32.235Z,9.12
2023-01-13T17:29:01.239Z,9.18
2023-01-13T17:31:29.516Z,9.19
2023-01-13T17:33:57.264Z,9.18
2023-01-13T17:36:25.688Z,9.08
2023-01-13T17:38:55.443Z,9.12
2023-01-13T17:41:23.221Z,9.07
2023-01-13T17:43:50.898Z,9.08
2023-01-13T17:46:19.707Z,9.06
2023-01-13T17:48:47.934Z,9.06
2023-01-13T17:51:17.490Z,9.05
2023-01-13T17:53:45.921Z,8.98
2023-01-13T17:56:16.843Z,9.14
2023-01-13T17:58:45.317Z,9.13
2023-01-13T18:01:16.529Z,9.07
2023-01-13T18:03:44.513Z,9.00
2023-01-13T18:06:16.880Z,8.84
2023-01-13T18:08:44.939Z,9.05
2023-01-13T18:11:12.582Z,9.01
2023-01-13T18:13:42.733Z,8.75
2023-01-13T18:16:13.814Z,9.03
2023-01-13T18:18:43.418Z,9.14
2023-01-13T18:21:35.727Z,9.18
2023-01-13T18:24:20.913Z,9.22
2023-01-13T18:27:05.889Z,9.05
2023-01-13T18:29:34.904Z,9.05
2023-01-13T18:32:02.540Z,9.10
2023-01-13T18:34:30.453Z,9.21
2023-01-13T18:36:58.050Z,9.13
2023-01-13T18:39:25.711Z,9.15
2023-01-13T18:42:11.284Z,9.10
2023-01-13T18:44:40.347Z,9.10
2023-01-13T18:47:08.064Z,8.95
2023-01-13T18:49:35.759Z,8.91
2023-01-13T18:52:03.629Z,8.86
2023-01-13T18:54:31.324Z,8.94
2023-01-13T18:57:01.394Z,8.91
2023-01-13T18:59:29.697Z,8.90
2023-01-13T19:01:59.145Z,8.87
2023-01-13T19:04:26.853Z,8.97
2023-01-13T19:07:00.120Z,9.13
2023-01-13T19:09:29.524Z,8.87
2023-01-13T19:11:58.367Z,8.90
2023-01-13T19:14:37.831Z,8.77
2023-01-13T19:17:09.432Z,8.59
2023-01-13T19:19:40.263Z,8.58
2023-01-13T19:22:08.595Z,8.59
2023-01-13T19:24:36.372Z,8.34
2023-01-13T19:27:04.104Z,8.68
2023-01-13T19:29:33.869Z,8.66
2023-01-13T19:32:01.778Z,8.68
2023-01-13T19:34:31.057Z,8.58
2023-01-13T19:36:58.916Z,8.66
2023-01-13T19:39:26.925Z,8.65
2023-01-13T19:42:12.164Z,8.65
2023-01-13T19:44:57.556Z,8.82
2023-01-13T19:47:25.447Z,8.06
2023-01-13T19:49:54.414Z,8.74
2023-01-13T19:52:22.104Z,8.66
2023-01-13T19:54:49.888Z,8.63
2023-01-13T19:57:17.515Z,8.56
2023-01-13T19:59:45.163Z,8.56
2023-01-13T20:02:15.789Z,8.49
2023-01-13T20:04:45.364Z,8.40
2023-01-13T20:07:14.560Z,8.50
2023-01-13T20:09:44.323Z,8.48
2023-01-13T20:12:12.627Z,8.54
2023-01-13T20:14:41.003Z,8.32
2023-01-13T20:17:08.816Z,8.29
2023-01-13T20:19:36.477Z,8.39
2023-01-13T20:22:04.117Z,8.38
2023-01-13T20:24:33.361Z,8.27
2023-01-13T20:27:01.995Z,8.20
2023-01-13T20:29:30.093Z,8.13
2023-01-13T20:31:57.826Z,7.86
2023-01-13T20:34:25.831Z,8.14
2023-01-13T20:36:54.064Z,8.09
2023-01-13T20:39:25.103Z,7.99
2023-01-13T20:42:11.615Z,8.03
2023-01-13T20:44:39.325Z,8.08
2023-01-13T20:47:07.486Z,7.98
2023-01-13T20:49:36.039Z,7.93
2023-01-13T20:52:09.045Z,7.85
2023-01-13T20:54:36.958Z,7.85
2023-01-13T20:57:07.868Z,7.91
2023-01-13T20:59:35.579Z,7.85
2023-01-13T21:02:03.575Z,7.90
2023-01-13T21:04:31.388Z,7.80
2023-01-13T21:06:59.053Z,7.80
2023-01-13T21:09:27.495Z,7.83
2023-01-13T21:12:13.160Z,7.88
2023-01-13T21:14:59.663Z,7.74
2023-01-13T21:17:41.369Z,7.73
2023-01-13T21:20:11.442Z,7.86
2023-01-13T21:22:39.190Z,7.97
2023-01-13T21:25:08.207Z,7.94
2023-01-13T21:27:35.924Z,8.01
2023-01-13T21:30:07.819Z,7.85
2023-01-13T21:32:35.461Z,7.87
2023-01-13T21:35:03.168Z,7.88
2023-01-13T21:37:30.989Z,7.70
2023-01-13T21:39:58.685Z,7.96
2023-01-13T21:42:43.944Z,7.94
2023-01-13T21:45:30.620Z,7.89
2023-01-13T21:47:58.255Z,7.96
2023-01-13T21:50:28.078Z,8.01
2023-01-13T21:52:58.164Z,7.94
2023-01-13T21:55:28.365Z,7.92
2023-01-13T21:57:58.171Z,8.07
2023-01-13T22:00:29.652Z,7.88
2023-01-13T22:02:58.428Z,7.99
2023-01-13T22:05:27.247Z,8.08
2023-01-13T22:07:54.939Z,8.06
2023-01-13T22:10:25.939Z,7.79
2023-01-13T22:12:55.061Z,7.98
2023-01-13T22:15:26.557Z,8.12
2023-01-13T22:17:56.200Z,8.05
2023-01-13T22:20:24.298Z,7.98
2023-01-13T22:22:51.924Z,8.06
2023-01-13T22:25:20.243Z,8.03
2023-01-13T22:27:49.126Z,7.91
2023-01-13T22:30:21.571Z,8.09
2023-01-13T22:32:49.989Z,8.05
2023-01-13T22:35:19.026Z,8.01
2023-01-13T22:37:46.702Z,7.96
2023-01-13T22:40:14.739Z,8.18
2023-01-13T22:42:43.752Z,8.21
2023-01-13T22:45:13.836Z,8.24
2023-01-13T22:47:41.977Z,8.32
2023-01-13T22:50:12.424Z,8.28
2023-01-13T22:52:41.395Z,8.27
2023-01-13T22:55:09.792Z,8.20
2023-01-13T22:57:47.266Z,8.24
2023-01-13T23:00:18.720Z,8.33
2023-01-13T23:02:46.713Z,8.23
2023-01-13T23:05:14.646Z,8.35
2023-01-13T23:07:43.613Z,8.25
2023-01-13T23:10:12.331Z,8.18
2023-01-13T23:12:40.158Z,8.06
2023-01-13T23:15:08.566Z,7.91
2023-01-13T23:17:36.623Z,7.90
2023-01-13T23:20:04.755Z,7.84
2023-01-13T23:22:32.483Z,7.79
2023-01-13T23:25:01.443Z,7.84
2023-01-13T23:27:29.128Z,7.88
2023-01-13T23:29:56.792Z,7.89
2023-01-13T23:32:24.440Z,7.74
2023-01-13T23:34:52.086Z,7.75
2023-01-13T23:37:19.687Z,7.90
2023-01-13T23:39:47.286Z,7.82
2023-01-13T23:42:16.248Z,7.87
2023-01-13T23:44:43.912Z,7.86
2023-01-13T23:47:12.526Z,7.81
2023-01-13T23:49:40.822Z,7.85
2023-01-13T23:52:08.514Z,7.80
2023-01-13T23:54:36.322Z,7.94
2023-01-13T23:57:04.011Z,7.83
2023-01-13T23:59:33.069Z,7.80
